createdAt,value
2018-12-30T00:02:27.680Z,5.18
2018-12-30T00:04:59.742Z,5.21
2018-12-30T00:07:33.449Z,5.21
2018-12-30T00:10:05.351Z,5.23
2018-12-30T00:12:37.181Z,5.23
2018-12-30T00:15:09.229Z,5.23
2018-12-30T00:17:41.091Z,5.26
2018-12-30T00:20:13.251Z,5.25
2018-12-30T00:22:44.986Z,5.19
2018-12-30T00:25:17.113Z,5.16
2018-12-30T00:27:49.164Z,5.14
2018-12-30T00:30:21.545Z,5.13
2018-12-30T00:32:53.325Z,5.10
2018-12-30T00:35:26.374Z,5.12
2018-12-30T00:37:58.159Z,5.14
2018-12-30T00:40:29.823Z,5.15
2018-12-30T00:43:01.620Z,5.14
2018-12-30T00:45:33.468Z,5.16
2018-12-30T00:48:05.211Z,5.18
2018-12-30T00:50:37.643Z,5.15
2018-12-30T00:53:09.362Z,5.13
2018-12-30T00:55:41.285Z,5.13
2018-12-30T00:58:13.005Z,5.14
2018-12-30T01:00:44.913Z,5.13
2018-12-30T01:03:17.198Z,5.11
2018-12-30T01:05:52.913Z,5.11
2018-12-30T01:08:25.579Z,5.10
2018-12-30T01:10:57.326Z,5.13
2018-12-30T01:13:29.126Z,5.13
2018-12-30T01:16:00.909Z,5.12
2018-12-30T01:18:32.998Z,5.11
2018-12-30T01:21:05.103Z,5.11
2018-12-30T01:23:37.470Z,5.10
2018-12-30T01:26:09.105Z,5.12
2018-12-30T01:28:41.242Z,5.11
2018-12-30T01:31:13.332Z,5.14
2018-12-30T01:33:46.154Z,5.10
2018-12-30T01:36:18.211Z,5.08
2018-12-30T01:38:50.532Z,5.04
2018-12-30T01:41:22.063Z,5.02
2018-12-30T01:43:55.428Z,4.93
2018-12-30T01:46:27.260Z,4.94
2018-12-30T01:48:58.961Z,4.93
2018-12-30T01:51:33.105Z,4.88
2018-12-30T01:54:04.097Z,4.86
2018-12-30T01:56:36.235Z,4.86
2018-12-30T01:59:08.090Z,4.82
2018-12-30T02:01:39.923Z,4.82
2018-12-30T02:04:11.849Z,4.83
2018-12-30T02:06:44.033Z,4.83
2018-12-30T02:09:15.652Z,4.83
2018-12-30T02:11:47.541Z,4.83
2018-12-30T02:14:19.493Z,4.85
2018-12-30T02:16:51.176Z,4.83
2018-12-30T02:19:22.635Z,4.87
2018-12-30T02:21:54.318Z,4.89
2018-12-30T02:24:26.045Z,4.92
2018-12-30T02:26:57.912Z,4.91
2018-12-30T02:29:29.573Z,4.92
2018-12-30T02:32:01.241Z,4.94
2018-12-30T02:34:32.952Z,4.93
2018-12-30T02:37:04.575Z,4.93
2018-12-30T02:39:36.274Z,4.92
2018-12-30T02:42:07.992Z,4.91
2018-12-30T02:44:40.309Z,4.88
2018-12-30T02:47:11.958Z,4.83
2018-12-30T02:49:43.645Z,4.78
2018-12-30T02:52:15.253Z,4.76
2018-12-30T02:54:46.889Z,4.75
2018-12-30T02:57:18.723Z,4.75
2018-12-30T02:59:50.499Z,4.73
2018-12-30T03:02:22.178Z,4.73
2018-12-30T03:04:53.800Z,4.71
2018-12-30T03:07:25.423Z,4.70
2018-12-30T03:09:57.191Z,4.69
2018-12-30T03:12:28.707Z,4.68
2018-12-30T03:15:00.429Z,4.71
2018-12-30T03:17:32.097Z,4.69
2018-12-30T03:20:03.858Z,4.69
2018-12-30T03:22:35.642Z,4.69
2018-12-30T03:25:07.617Z,4.71
2018-12-30T03:27:39.222Z,4.73
2018-12-30T03:30:11.448Z,4.72
2018-12-30T03:32:43.130Z,4.71
2018-12-30T03:35:15.042Z,4.67
2018-12-30T03:37:46.828Z,4.64
2018-12-30T03:40:18.523Z,4.65
2018-12-30T03:42:50.179Z,4.67
2018-12-30T03:45:21.681Z,4.63
2018-12-30T03:47:53.283Z,4.53
2018-12-30T03:50:24.901Z,4.50
2018-12-30T03:52:56.611Z,4.50
2018-12-30T03:55:28.342Z,4.49
2018-12-30T03:58:00.033Z,4.46
2018-12-30T04:00:31.772Z,4.47
2018-12-30T04:03:03.539Z,4.50
2018-12-30T04:05:35.307Z,4.53
2018-12-30T04:08:06.999Z,4.56
2018-12-30T04:10:38.527Z,4.56
2018-12-30T04:13:10.027Z,4.51
2018-12-30T04:15:41.714Z,4.51
2018-12-30T04:18:13.278Z,4.52
2018-12-30T04:20:44.839Z,4.52
2018-12-30T04:23:16.429Z,4.53
2018-12-30T04:25:47.938Z,4.55
2018-12-30T04:28:19.542Z,4.57
2018-12-30T04:30:51.200Z,4.61
2018-12-30T04:33:22.815Z,4.61
2018-12-30T04:35:54.371Z,4.64
2018-12-30T04:38:25.965Z,4.55
2018-12-30T04:40:57.740Z,4.50
2018-12-30T04:43:29.288Z,4.54
2018-12-30T04:46:00.925Z,4.55
2018-12-30T04:48:32.431Z,4.56
2018-12-30T04:51:04.019Z,4.58
2018-12-30T04:53:35.643Z,4.57
2018-12-30T04:56:07.484Z,4.59
2018-12-30T04:58:39.175Z,4.60
2018-12-30T05:01:10.773Z,4.60
2018-12-30T05:03:42.587Z,4.60
2018-12-30T05:06:15.069Z,4.60
2018-12-30T05:08:46.602Z,4.60
2018-12-30T05:11:18.437Z,4.61
2018-12-30T05:13:50.076Z,4.62
2018-12-30T05:16:21.760Z,4.63
2018-12-30T05:18:53.658Z,4.61
2018-12-30T05:21:26.781Z,4.63
2018-12-30T05:23:58.572Z,4.63
2018-12-30T05:26:32.425Z,4.66
2018-12-30T05:29:04.090Z,4.71
2018-12-30T05:31:35.753Z,4.69
2018-12-30T05:34:07.478Z,4.69
2018-12-30T05:36:39.205Z,4.68
2018-12-30T05:39:13.729Z,4.68
2018-12-30T05:41:45.900Z,4.67
2018-12-30T05:44:17.566Z,4.69
2018-12-30T05:46:49.197Z,4.66
2018-12-30T05:49:20.856Z,4.65
2018-12-30T05:51:52.666Z,4.64
2018-12-30T05:54:24.205Z,4.65
2018-12-30T05:56:55.917Z,4.65
2018-12-30T05:59:29.053Z,4.66
2018-12-30T06:02:00.757Z,4.72
2018-12-30T06:04:32.500Z,4.76
2018-12-30T06:07:05.311Z,4.74
2018-12-30T06:09:37.036Z,4.72
2018-12-30T06:12:08.757Z,4.73
2018-12-30T06:14:40.497Z,4.73
2018-12-30T06:17:12.978Z,4.69
2018-12-30T06:19:44.754Z,4.68
2018-12-30T06:22:17.562Z,4.69
2018-12-30T06:24:49.230Z,4.68
2018-12-30T06:27:21.998Z,4.67
2018-12-30T06:29:53.712Z,4.71
2018-12-30T06:32:25.982Z,4.70
2018-12-30T06:34:57.684Z,4.72
2018-12-30T06:37:30.398Z,4.72
2018-12-30T06:40:01.961Z,4.77
2018-12-30T06:42:33.540Z,4.75
2018-12-30T06:45:05.461Z,4.75
2018-12-30T06:47:37.169Z,4.85
2018-12-30T06:50:10.481Z,4.81
2018-12-30T06:52:42.197Z,4.82
2018-12-30T06:55:13.972Z,4.77
2018-12-30T06:57:45.627Z,4.78
2018-12-30T07:00:17.214Z,4.77
2018-12-30T07:02:49.212Z,4.76
2018-12-30T07:05:20.988Z,4.79
2018-12-30T07:08:11.560Z,4.76
2018-12-30T07:10:43.850Z,4.76
2018-12-30T07:13:15.544Z,4.92
2018-12-30T07:15:47.413Z,4.81
2018-12-30T07:18:19.071Z,4.78
2018-12-30T07:20:51.044Z,4.76
2018-12-30T07:23:23.031Z,4.75
2018-12-30T07:25:54.675Z,4.77
2018-12-30T07:28:26.355Z,4.80
2018-12-30T07:30:58.093Z,4.85
2018-12-30T07:33:29.676Z,4.94
2018-12-30T07:36:01.519Z,4.98
2018-12-30T07:38:33.550Z,5.00
2018-12-30T07:41:07.698Z,5.06
2018-12-30T07:43:39.499Z,5.20
2018-12-30T07:46:11.993Z,5.26
2018-12-30T07:48:43.658Z,5.23
2018-12-30T07:51:15.303Z,5.23
2018-12-30T07:53:47.246Z,5.24
2018-12-30T07:56:18.988Z,5.23
2018-12-30T07:58:50.943Z,5.27
2018-12-30T08:01:22.991Z,5.26
2018-12-30T08:03:55.006Z,5.27
2018-12-30T08:06:28.659Z,5.29
2018-12-30T08:09:00.772Z,5.30
2018-12-30T08:11:33.484Z,5.29
2018-12-30T08:14:05.757Z,5.27
2018-12-30T08:16:38.801Z,5.29
2018-12-30T08:19:10.508Z,5.18
2018-12-30T08:21:42.781Z,5.16
2018-12-30T08:24:14.513Z,5.25
2018-12-30T08:26:47.162Z,5.25
2018-12-30T08:29:21.032Z,5.16
2018-12-30T08:31:53.247Z,5.04
2018-12-30T08:34:24.994Z,5.08
2018-12-30T08:36:56.739Z,5.18
2018-12-30T08:39:28.287Z,5.15
2018-12-30T08:41:59.996Z,5.13
2018-12-30T08:44:31.694Z,5.04
2018-12-30T08:47:03.581Z,5.05
2018-12-30T08:49:35.695Z,5.15
2018-12-30T08:52:07.639Z,5.25
2018-12-30T08:54:39.353Z,5.35
2018-12-30T08:57:11.590Z,5.42
2018-12-30T08:59:43.904Z,5.50
2018-12-30T09:02:15.876Z,5.57
2018-12-30T09:04:47.612Z,5.62
2018-12-30T09:07:19.606Z,5.68
2018-12-30T09:09:51.228Z,5.75
2018-12-30T09:12:22.901Z,5.84
2018-12-30T09:14:54.575Z,5.87
2018-12-30T09:17:26.336Z,5.88
2018-12-30T09:19:58.306Z,5.87
2018-12-30T09:22:30.058Z,5.87
2018-12-30T09:25:01.942Z,5.89
2018-12-30T09:27:33.714Z,5.98
2018-12-30T09:30:05.828Z,5.97
2018-12-30T09:32:37.711Z,5.96
2018-12-30T09:35:09.428Z,6.05
2018-12-30T09:37:41.483Z,6.05
2018-12-30T09:40:14.408Z,6.11
2018-12-30T09:42:46.513Z,6.40
2018-12-30T09:45:18.572Z,6.57
2018-12-30T09:47:50.272Z,6.55
2018-12-30T09:50:22.446Z,6.53
2018-12-30T09:52:54.435Z,6.43
2018-12-30T09:55:26.671Z,6.53
2018-12-30T09:57:58.784Z,6.55
2018-12-30T10:00:32.873Z,6.55
2018-12-30T10:03:04.941Z,6.48
2018-12-30T10:05:37.511Z,6.65
2018-12-30T10:08:09.669Z,6.82
2018-12-30T10:10:42.521Z,7.06
2018-12-30T10:13:17.512Z,7.10
2018-12-30T10:15:49.180Z,7.20
2018-12-30T10:18:21.459Z,7.44
2018-12-30T10:20:55.184Z,7.81
2018-12-30T10:23:27.206Z,7.85
2018-12-30T10:25:59.025Z,7.71
2018-12-30T10:28:31.274Z,7.86
2018-12-30T10:31:03.759Z,7.93
2018-12-30T10:33:35.938Z,8.10
2018-12-30T10:36:08.683Z,8.21
2018-12-30T10:38:41.425Z,8.27
2018-12-30T10:41:15.003Z,8.46
2018-12-30T10:43:47.087Z,8.23
2018-12-30T10:46:19.515Z,7.97
2018-12-30T10:48:51.574Z,7.85
2018-12-30T10:51:23.269Z,7.77
2018-12-30T10:54:00.616Z,7.76
2018-12-30T10:56:29.890Z,7.68
2018-12-30T10:59:01.693Z,7.63
2018-12-30T11:01:33.738Z,7.56
2018-12-30T11:04:05.555Z,7.63
2018-12-30T11:06:37.332Z,7.58
2018-12-30T11:09:10.353Z,7.67
2018-12-30T11:11:42.882Z,7.69
2018-12-30T11:14:14.860Z,7.77
2018-12-30T11:16:46.879Z,7.68
2018-12-30T11:19:19.035Z,7.73
2018-12-30T11:21:52.337Z,7.74
2018-12-30T11:24:24.662Z,7.75
2018-12-30T11:26:56.434Z,7.76
2018-12-30T11:29:28.391Z,7.79
2018-12-30T11:32:00.377Z,7.95
2018-12-30T11:34:32.169Z,8.01
2018-12-30T11:37:04.140Z,8.07
2018-12-30T11:39:35.944Z,8.20
2018-12-30T11:42:07.855Z,8.28
2018-12-30T11:44:39.937Z,8.38
2018-12-30T11:47:11.741Z,8.39
2018-12-30T11:49:43.385Z,8.43
2018-12-30T11:52:15.255Z,8.65
2018-12-30T11:54:48.635Z,8.90
2018-12-30T11:57:20.380Z,9.08
2018-12-30T11:59:52.334Z,9.22
2018-12-30T12:02:24.446Z,9.29
2018-12-30T12:04:57.251Z,9.47
2018-12-30T12:07:29.037Z,9.75
2018-12-30T12:10:01.157Z,9.78
2018-12-30T12:12:33.081Z,10.24
2018-12-30T12:15:06.694Z,10.78
2018-12-30T12:17:39.703Z,10.93
2018-12-30T12:20:11.698Z,10.69
2018-12-30T12:22:43.648Z,10.67
2018-12-30T12:25:15.470Z,10.46
2018-12-30T12:27:47.556Z,10.49
2018-12-30T12:30:19.415Z,10.51
2018-12-30T12:32:52.190Z,10.65
2018-12-30T12:35:24.524Z,10.60
2018-12-30T12:37:56.326Z,11.00
2018-12-30T12:40:28.277Z,11.50
2018-12-30T12:43:00.077Z,11.65
2018-12-30T12:45:32.427Z,11.33
2018-12-30T12:48:04.199Z,12.36
2018-12-30T12:50:36.671Z,13.14
2018-12-30T12:53:08.623Z,12.64
2018-12-30T12:55:41.393Z,13.05
2018-12-30T12:58:13.659Z,12.29
2018-12-30T13:00:49.929Z,12.10
2018-12-30T13:03:22.053Z,11.31
2018-12-30T13:05:53.968Z,10.83
2018-12-30T13:08:26.254Z,10.50
2018-12-30T13:11:00.376Z,10.20
2018-12-30T13:13:32.894Z,10.20
2018-12-30T13:16:06.790Z,10.29
2018-12-30T13:18:38.993Z,10.55
2018-12-30T13:21:10.987Z,10.87
2018-12-30T13:23:43.220Z,12.05
2018-12-30T13:26:16.711Z,13.20
2018-12-30T13:28:48.836Z,13.12
2018-12-30T13:31:21.231Z,12.88
2018-12-30T13:33:54.584Z,13.64
2018-12-30T13:36:28.008Z,14.40
2018-12-30T13:39:00.897Z,14.05
2018-12-30T13:41:34.242Z,13.07
2018-12-30T13:44:06.826Z,13.13
2018-12-30T13:46:39.150Z,13.12
2018-12-30T13:49:13.447Z,13.23
2018-12-30T13:51:46.774Z,13.58
2018-12-30T13:54:20.176Z,13.79
2018-12-30T13:56:53.616Z,12.96
2018-12-30T13:59:26.637Z,13.19
2018-12-30T14:02:00.718Z,12.91
2018-12-30T14:04:34.486Z,13.34
2018-12-30T14:07:06.866Z,13.55
2018-12-30T14:09:39.439Z,14.22
2018-12-30T14:12:12.500Z,13.96
2018-12-30T14:14:45.073Z,13.13
2018-12-30T14:17:18.608Z,13.34
2018-12-30T14:19:51.053Z,13.06
2018-12-30T14:22:23.678Z,12.58
2018-12-30T14:24:55.854Z,12.25
2018-12-30T14:27:28.479Z,12.07
2018-12-30T14:30:01.159Z,12.08
2018-12-30T14:32:33.533Z,12.29
2018-12-30T14:35:06.341Z,12.29
2018-12-30T14:37:41.553Z,12.38
2018-12-30T14:40:13.866Z,12.38
2018-12-30T14:42:45.784Z,12.18
2018-12-30T14:45:19.840Z,12.20
2018-12-30T14:47:52.477Z,12.09
2018-12-30T14:50:25.023Z,12.13
2018-12-30T14:52:57.165Z,12.20
2018-12-30T14:55:29.364Z,12.42
2018-12-30T14:58:01.919Z,12.33
2018-12-30T15:00:38.430Z,12.27
2018-12-30T15:03:11.055Z,12.15
2018-12-30T15:05:44.712Z,12.10
2018-12-30T15:08:17.424Z,11.95
2018-12-30T15:10:49.721Z,11.76
2018-12-30T15:13:22.830Z,11.52
2018-12-30T15:15:54.638Z,11.11
2018-12-30T15:18:27.484Z,10.75
2018-12-30T15:21:03.323Z,10.20
2018-12-30T15:23:37.556Z,9.57
2018-12-30T15:26:10.151Z,9.02
2018-12-30T15:28:42.541Z,8.47
2018-12-30T15:31:14.702Z,8.05
2018-12-30T15:33:46.927Z,7.78
2018-12-30T15:36:19.110Z,7.48
2018-12-30T15:38:51.425Z,7.25
2018-12-30T15:41:24.263Z,7.05
2018-12-30T15:43:56.900Z,6.88
2018-12-30T15:46:29.165Z,6.70
2018-12-30T15:49:04.395Z,6.59
2018-12-30T15:51:39.592Z,6.50
2018-12-30T15:54:11.916Z,6.36
2018-12-30T15:56:43.994Z,6.25
2018-12-30T15:59:16.229Z,6.14
2018-12-30T16:01:50.691Z,6.04
2018-12-30T16:04:23.708Z,5.99
2018-12-30T16:06:55.922Z,5.90
2018-12-30T16:09:28.858Z,5.77
2018-12-30T16:12:01.882Z,5.71
2018-12-30T16:14:34.391Z,5.65
2018-12-30T16:17:06.122Z,5.61
2018-12-30T16:19:38.236Z,5.63
2018-12-30T16:22:10.253Z,5.61
2018-12-30T16:24:43.371Z,5.54
2018-12-30T16:27:15.696Z,5.50
2018-12-30T16:29:47.695Z,5.44
2018-12-30T16:32:19.495Z,5.41
2018-12-30T16:34:51.745Z,5.37
2018-12-30T16:37:24.719Z,5.32
2018-12-30T16:39:56.890Z,5.32
2018-12-30T16:42:29.214Z,5.32
2018-12-30T16:45:02.601Z,5.30
2018-12-30T16:47:41.595Z,5.42
2018-12-30T16:50:09.155Z,5.46
2018-12-30T16:52:41.554Z,5.52
2018-12-30T16:55:13.501Z,5.57
2018-12-30T16:57:45.287Z,5.63
2018-12-30T17:00:17.427Z,5.69
2018-12-30T17:02:50.252Z,5.73
2018-12-30T17:05:22.005Z,5.78
2018-12-30T17:07:54.291Z,5.79
2018-12-30T17:10:27.794Z,5.85
2018-12-30T17:13:00.982Z,5.85
2018-12-30T17:15:33.664Z,5.87
2018-12-30T17:18:05.792Z,5.91
2018-12-30T17:20:37.780Z,5.95
2018-12-30T17:23:09.921Z,5.96
2018-12-30T17:25:43.701Z,5.94
2018-12-30T17:28:15.953Z,5.95
2018-12-30T17:30:47.852Z,5.91
2018-12-30T17:33:19.828Z,5.91
2018-12-30T17:35:51.694Z,5.87
2018-12-30T17:38:23.974Z,5.85
2018-12-30T17:41:01.492Z,5.83
2018-12-30T17:43:31.680Z,5.83
2018-12-30T17:46:03.589Z,5.85
2018-12-30T17:48:35.742Z,5.83
2018-12-30T17:51:07.558Z,5.74
2018-12-30T17:53:39.491Z,5.73
2018-12-30T17:56:11.977Z,5.65
2018-12-30T17:58:44.475Z,5.62
2018-12-30T18:01:17.431Z,5.60
2018-12-30T18:03:50.194Z,5.57
2018-12-30T18:06:21.997Z,5.58
2018-12-30T18:08:54.495Z,5.55
2018-12-30T18:11:27.016Z,5.53
2018-12-30T18:14:05.708Z,5.53
2018-12-30T18:16:39.921Z,5.59
2018-12-30T18:19:13.982Z,5.64
2018-12-30T18:21:46.729Z,5.55
2018-12-30T18:24:19.618Z,5.50
2018-12-30T18:26:52.062Z,5.45
2018-12-30T18:29:26.276Z,5.39
2018-12-30T18:31:57.860Z,5.37
2018-12-30T18:34:30.544Z,5.42
2018-12-30T18:37:03.533Z,5.38
2018-12-30T18:39:36.022Z,5.36
2018-12-30T18:42:09.419Z,5.35
2018-12-30T18:44:44.770Z,5.34
2018-12-30T18:47:17.071Z,5.34
2018-12-30T18:49:50.830Z,5.31
2018-12-30T18:52:24.370Z,5.27
2018-12-30T18:54:57.223Z,5.21
2018-12-30T18:57:32.177Z,5.08
2018-12-30T19:00:06.823Z,5.04
2018-12-30T19:02:38.965Z,4.96
2018-12-30T19:05:14.366Z,4.91
2018-12-30T19:07:47.327Z,4.78
2018-12-30T19:10:22.927Z,4.81
2018-12-30T19:12:57.186Z,4.77
2018-12-30T19:15:32.763Z,4.76
2018-12-30T19:18:05.892Z,4.73
2018-12-30T19:20:49.752Z,4.66
2018-12-30T19:23:25.622Z,4.62
2018-12-30T19:26:01.664Z,4.54
2018-12-30T19:28:37.057Z,4.49
2018-12-30T19:31:11.321Z,4.45
2018-12-30T19:33:45.690Z,4.39
2018-12-30T19:36:21.797Z,4.39
2018-12-30T19:38:53.850Z,4.38
2018-12-30T19:41:27.357Z,4.37
2018-12-30T19:44:00.128Z,4.34
2018-12-30T19:46:31.935Z,4.35
2018-12-30T19:49:04.704Z,4.35
2018-12-30T19:51:38.765Z,4.33
2018-12-30T19:54:12.044Z,4.28
2018-12-30T19:56:45.635Z,4.25
2018-12-30T19:59:18.295Z,4.25
2018-12-30T20:01:51.300Z,4.25
2018-12-30T20:04:24.253Z,4.22
2018-12-30T20:07:03.405Z,4.22
2018-12-30T20:09:31.243Z,4.19
2018-12-30T20:12:04.574Z,4.20
2018-12-30T20:14:37.641Z,4.19
2018-12-30T20:17:09.977Z,4.14
2018-12-30T20:19:44.152Z,4.14
2018-12-30T20:22:18.293Z,4.15
2018-12-30T20:24:54.164Z,4.09
2018-12-30T20:27:26.463Z,4.09
2018-12-30T20:29:58.309Z,3.98
2018-12-30T20:32:31.889Z,3.93
2018-12-30T20:35:04.923Z,3.84
2018-12-30T20:37:37.513Z,3.83
2018-12-30T20:40:16.197Z,3.86
2018-12-30T20:42:49.092Z,3.79
2018-12-30T20:45:23.843Z,3.80
2018-12-30T20:47:58.617Z,3.78
2018-12-30T20:50:32.704Z,3.81
2018-12-30T20:53:05.241Z,3.74
2018-12-30T20:55:37.570Z,3.68
2018-12-30T20:58:11.986Z,3.68
2018-12-30T21:00:46.786Z,3.65
2018-12-30T21:03:21.275Z,3.64
2018-12-30T21:05:57.875Z,3.62
2018-12-30T21:08:37.784Z,3.54
2018-12-30T21:11:19.364Z,3.48
2018-12-30T21:13:56.707Z,3.42
2018-12-30T21:16:34.405Z,3.41
2018-12-30T21:19:07.950Z,3.36
2018-12-30T21:21:41.724Z,3.37
2018-12-30T21:24:21.649Z,3.38
2018-12-30T21:26:57.383Z,3.35
2018-12-30T21:29:32.940Z,3.35
2018-12-30T21:32:05.850Z,3.33
2018-12-30T21:34:49.288Z,3.30
2018-12-30T21:37:26.155Z,3.25
2018-12-30T21:40:12.928Z,3.22
2018-12-30T21:42:49.997Z,3.13
2018-12-30T21:45:24.732Z,3.07
2018-12-30T21:47:57.931Z,3.03
2018-12-30T21:50:32.491Z,3.04
2018-12-30T21:53:08.386Z,3.01
2018-12-30T21:55:41.803Z,2.98
2018-12-30T21:58:14.149Z,2.96
2018-12-30T22:00:55.399Z,2.93
2018-12-30T22:03:38.765Z,2.89
2018-12-30T22:06:15.637Z,2.84
2018-12-30T22:08:50.312Z,2.78
2018-12-30T22:11:27.176Z,2.69
2018-12-30T22:14:03.068Z,2.64
2018-12-30T22:16:41.324Z,2.55
2018-12-30T22:19:15.380Z,2.49
2018-12-30T22:21:49.099Z,2.41
2018-12-30T22:24:27.035Z,2.36
2018-12-30T22:27:02.969Z,2.31
2018-12-30T22:29:37.229Z,2.27
2018-12-30T22:32:10.732Z,2.22
2018-12-30T22:34:45.833Z,2.19
2018-12-30T22:37:17.920Z,2.14
2018-12-30T22:39:50.869Z,2.11
2018-12-30T22:42:23.304Z,1.99
2018-12-30T22:44:56.344Z,1.87
2018-12-30T22:47:28.677Z,1.70
2018-12-30T22:50:04.132Z,1.53
2018-12-30T22:52:41.133Z,1.43
2018-12-30T22:55:13.305Z,1.43
2018-12-30T22:57:45.796Z,1.41
2018-12-30T23:00:35.235Z,1.42
2018-12-30T23:03:08.173Z,1.39
2018-12-30T23:05:40.061Z,1.36
2018-12-30T23:08:12.240Z,1.31
2018-12-30T23:10:45.057Z,1.31
2018-12-30T23:13:17.659Z,1.25
2018-12-30T23:15:49.608Z,1.22
2018-12-30T23:18:21.426Z,1.23
2018-12-30T23:20:55.397Z,1.20
2018-12-30T23:23:27.132Z,1.20
2018-12-30T23:25:59.443Z,1.19
2018-12-30T23:28:31.717Z,1.15
2018-12-30T23:31:05.250Z,1.06
2018-12-30T23:33:37.979Z,1.02
2018-12-30T23:36:09.815Z,1.02
2018-12-30T23:38:43.104Z,1.07
2018-12-30T23:41:15.025Z,1.11
2018-12-30T23:43:46.924Z,1.12
2018-12-30T23:46:19.000Z,1.08
2018-12-30T23:48:50.883Z,0.97
2018-12-30T23:51:23.061Z,0.88
2018-12-30T23:53:55.044Z,0.83
2018-12-30T23:56:26.811Z,0.76
2018-12-30T23:59:03.639Z,0.61
